Time;durP1;ratioP1;P1;durP2;ratioP2;P2;SDS_P1;SDS_P2;PMS_P1;PMS_P2;Temp;Humidity;BMP_temperature;BMP_pressure;BME280_temperature;BME280_humidity;BME280_pressure;Samples;Min_cycle;Max_cycle;Signal;HPM_P1;HPM_P2
2024/02/27 00:01:11;;;;;;;5.07;2.90;;;;;;;;;;4991187;28;20054;-91
2024/02/27 00:03:37;;;;;;;4.88;2.95;;;;;;;;;;5009390;28;20056;-88
2024/02/27 00:06:03;;;;;;;5.72;2.88;;;8.90;99.90;;;;;;5007417;28;20105;-90
2024/02/27 00:08:29;;;;;;;6.47;3.05;;;;;;;;;;4987890;28;20077;-87
2024/02/27 00:10:55;;;;;;;7.20;3.17;;;;;;;;;;5011155;28;20045;-88
2024/02/27 00:13:21;;;;;;;5.10;2.80;;;;;;;;;;5006320;28;20101;-88
2024/02/27 00:15:47;;;;;;;4.72;2.90;;;;;;;;;;5005357;28;20031;-90
2024/02/27 00:18:16;;;;;;;6.43;3.13;;;8.80;99.90;;;;;;5006556;28;20086;-89
2024/02/27 00:20:42;;;;;;;4.35;2.50;;;;;;;;;;4992773;28;20034;-88
2024/02/27 00:23:08;;;;;;;5.35;2.90;;;;;;;;;;5006521;28;20018;-85
2024/02/27 00:25:34;;;;;;;5.38;2.90;;;;;;;;;;5006593;28;20058;-88
2024/02/27 00:28:00;;;;;;;6.40;3.15;;;;;;;;;;5006384;28;20073;-87
2024/02/27 00:30:26;;;;;;;5.05;2.90;;;;;;;;;;5007345;28;20125;-87
2024/02/27 00:32:52;;;;;;;4.78;2.72;;;;;;;;;;5007037;28;20037;-88
2024/02/27 00:35:18;;;;;;;4.38;2.72;;;;;;;;;;5008968;28;20014;-88
2024/02/27 00:37:44;;;;;;;5.78;3.00;;;;;;;;;;5007358;28;20027;-88
2024/02/27 00:40:12;;;;;;;6.88;3.25;;;8.60;99.90;;;;;;5014713;28;20034;-91
2024/02/27 00:42:38;;;;;;;6.47;3.60;;;;;;;;;;4996134;28;20038;-87
2024/02/27 00:45:04;;;;;;;5.65;3.25;;;;;;;;;;5009098;28;20469;-87
2024/02/27 00:47:30;;;;;;;5.72;3.25;;;;;;;;;;5006793;28;20104;-89
2024/02/27 00:49:57;;;;;;;5.22;3.25;;;;;;;;;;4994294;28;20050;-90
2024/02/27 00:52:24;;;;;;;5.85;3.05;;;;;;;;;;5009329;28;20034;-88
2024/02/27 00:54:51;;;;;;;5.53;2.97;;;;;;;;;;5009825;28;20010;-87
2024/02/27 00:57:17;;;;;;;6.03;3.10;;;;;;;;;;5007722;28;20018;-88
2024/02/27 00:59:43;;;;;;;4.63;3.13;;;;;;;;;;5007546;28;20022;-88
2024/02/27 01:02:09;;;;;;;6.20;3.25;;;;;;;;;;5008024;28;20018;-87
2024/02/27 01:04:35;;;;;;;6.00;3.17;;;;;;;;;;4989389;28;20094;-89
2024/02/27 01:07:02;;;;;;;5.30;2.95;;;;;;;;;;4992042;28;20018;-88
2024/02/27 01:09:28;;;;;;;6.55;3.50;;;;;;;;;;5012320;28;20031;-87
2024/02/27 01:11:54;;;;;;;5.40;3.33;;;;;;;;;;5012655;28;20098;-87
2024/02/27 01:14:20;;;;;;;6.10;3.40;;;;;;;;;;5008989;28;20038;-89
2024/02/27 01:16:46;;;;;;;6.35;3.70;;;;;;;;;;5007266;28;20110;-87
2024/02/27 01:19:12;;;;;;;8.75;3.13;;;;;;;;;;5008217;28;20089;-89
2024/02/27 01:21:42;;;;;;;6.22;3.47;;;;;;;;;;5010533;28;20589;-89
2024/02/27 01:24:08;;;;;;;6.15;3.72;;;;;;;;;;5009130;28;20077;-89
2024/02/27 01:26:34;;;;;;;7.63;3.88;;;;;;;;;;4996192;28;20043;-88
2024/02/27 01:29:00;;;;;;;7.10;3.60;;;;;;;;;;5011946;28;20018;-89
2024/02/27 01:31:26;;;;;;;6.28;3.55;;;;;;;;;;5012136;28;20011;-87
2024/02/27 01:33:52;;;;;;;6.32;3.60;;;;;;;;;;5008252;28;20090;-87
2024/02/27 01:36:18;;;;;;;6.05;3.70;;;;;;;;;;4991389;28;20031;-87
2024/02/27 01:38:44;;;;;;;7.15;3.60;;;;;;;;;;5006801;28;20096;-90
2024/02/27 01:41:10;;;;;;;7.25;4.22;;;8.70;99.90;;;;;;5009676;28;20030;-87
2024/02/27 01:43:36;;;;;;;7.60;3.85;;;;;;;;;;5004772;28;20018;-87
2024/02/27 01:46:15;;;;;;;7.38;4.00;;;8.70;99.90;;;;;;5010151;28;20046;-88
2024/02/27 01:48:41;;;;;;;6.82;4.30;;;;;;;;;;4988872;28;20011;-86
2024/02/27 01:51:07;;;;;;;9.68;4.55;;;;;;;;;;5009860;28;20082;-86
2024/02/27 01:53:34;;;;;;;7.50;4.30;;;;;;;;;;5011209;28;20030;-88
2024/02/27 01:56:01;;;;;;;9.02;4.68;;;;;;;;;;5010035;28;20029;-88
2024/02/27 01:58:27;;;;;;;12.27;4.70;;;;;;;;;;5011545;28;20023;-88
2024/02/27 02:00:53;;;;;;;8.63;4.35;;;;;;;;;;5010787;28;20026;-87
2024/02/27 02:03:22;;;;;;;9.25;4.85;;;;;;;;;;5010003;28;20031;-86
2024/02/27 02:05:49;;;;;;;11.13;5.07;;;;;;;;;;5011481;28;20026;-89
2024/02/27 02:08:15;;;;;;;9.32;4.60;;;;;;;;;;5011112;28;20030;-86
2024/02/27 02:10:41;;;;;;;9.45;5.03;;;;;;;;;;5011816;28;20050;-87
2024/02/27 02:13:07;;;;;;;7.82;4.85;;;;;;;;;;5009266;28;20046;-89
2024/02/27 02:15:33;;;;;;;9.77;5.40;;;;;;;;;;4991812;28;20054;-88
2024/02/27 02:17:59;;;;;;;8.20;4.60;;;;;;;;;;5009619;28;20501;-88
2024/02/27 02:20:25;;;;;;;9.60;5.20;;;;;;;;;;5011351;28;20063;-87
2024/02/27 02:22:51;;;;;;;8.32;4.82;;;;;;;;;;5007734;28;20030;-87
2024/02/27 02:25:17;;;;;;;9.45;5.50;;;;;;;;;;5011983;28;20033;-91
2024/02/27 02:27:43;;;;;;;12.95;5.63;;;;;;;;;;5008474;28;20029;-90
2024/02/27 02:30:11;;;;;;;13.25;5.85;;;;;;;;;;4991977;28;20019;-88
2024/02/27 02:32:46;;;;;;;9.40;5.10;;;8.50;99.90;;;;;;5008377;28;20019;-87
2024/02/27 02:35:15;;;;;;;10.25;5.30;;;;;;;;;;5007110;28;20015;-91
2024/02/27 02:37:48;;;;;;;8.85;5.75;;;8.40;99.90;;;;;;5007154;28;20102;-90
2024/02/27 02:40:14;;;;;;;11.18;6.72;;;8.50;99.90;;;;;;5004703;28;20042;-88
2024/02/27 02:42:41;;;;;;;9.38;6.15;;;;;;;;;;5008965;28;20017;-88
2024/02/27 02:45:07;;;;;;;10.02;5.72;;;;;;;;;;5008213;28;20006;-89
2024/02/27 02:47:33;;;;;;;13.70;6.78;;;;;;;;;;5007102;28;20034;-90
2024/02/27 02:49:59;;;;;;;9.32;5.28;;;;;;;;;;5009958;28;20058;-89
2024/02/27 02:52:25;;;;;;;12.00;6.78;;;;;;;;;;4993267;28;20023;-88
2024/02/27 02:54:52;;;;;;;10.68;6.20;;;8.30;99.90;;;;;;5009532;28;20026;-87
2024/02/27 02:57:18;;;;;;;13.45;6.82;;;;;;;;;;5006075;28;20697;-86
2024/02/27 02:59:45;;;;;;;10.65;6.72;;;;;;;;;;5009459;28;20089;-88
2024/02/27 03:02:11;;;;;;;12.02;6.93;;;;;;;;;;5009558;28;20030;-88
2024/02/27 03:04:37;;;;;;;10.38;6.70;;;8.40;99.90;;;;;;5007844;28;20026;-87
2024/02/27 03:07:03;;;;;;;13.32;7.35;;;;;;;;;;5010894;28;20032;-87
2024/02/27 03:09:31;;;;;;;11.63;7.18;;;;;;;;;;4993255;28;20018;-87
2024/02/27 03:11:57;;;;;;;13.48;7.53;;;8.30;99.90;;;;;;5010097;28;20082;-87
2024/02/27 03:14:23;;;;;;;13.13;7.65;;;;;;;;;;5010747;28;20063;-88
2024/02/27 03:16:49;;;;;;;12.82;7.55;;;;;;;;;;5010178;28;20026;-87
2024/02/27 03:19:15;;;;;;;12.05;7.53;;;;;;;;;;5012830;28;20026;-86
2024/02/27 03:21:41;;;;;;;12.77;7.72;;;;;;;;;;5012050;28;20090;-89
2024/02/27 03:24:07;;;;;;;13.15;7.25;;;;;;;;;;4993721;28;20466;-88
2024/02/27 03:26:34;;;;;;;13.23;6.95;;;;;;;;;;5012495;28;20010;-88
2024/02/27 03:29:00;;;;;;;14.68;7.88;;;;;;;;;;5013120;28;20042;-86
2024/02/27 03:31:26;;;;;;;14.95;8.63;;;;;;;;;;5010663;28;20058;-87
2024/02/27 03:33:52;;;;;;;14.90;8.88;;;;;;;;;;5011630;28;20050;-89
2024/02/27 03:36:18;;;;;;;14.80;8.52;;;;;;;;;;5011837;28;20082;-89
2024/02/27 03:38:44;;;;;;;15.30;8.52;;;;;;;;;;5008915;28;20018;-87
2024/02/27 03:41:14;;;;;;;13.73;8.23;;;8.20;99.90;;;;;;5010589;28;20071;-87
2024/02/27 03:43:42;;;;;;;17.47;9.63;;;8.30;99.90;;;;;;5010932;28;20030;-89
2024/02/27 03:46:09;;;;;;;14.07;8.90;;;;;;;;;;5011148;28;20042;-86
2024/02/27 03:48:35;;;;;;;17.77;9.63;;;;;;;;;;5009870;28;20018;-89
2024/02/27 03:51:01;;;;;;;17.77;9.38;;;;;;;;;;5011325;28;20146;-87
2024/02/27 03:53:30;;;;;;;17.17;9.93;;;;;;;;;;5012717;28;20045;-87
2024/02/27 03:55:56;;;;;;;16.15;9.25;;;;;;;;;;5008607;28;20119;-88
2024/02/27 03:58:22;;;;;;;17.05;9.60;;;;;;;;;;5014056;28;20090;-85
2024/02/27 04:00:48;;;;;;;17.75;10.10;;;;;;;;;;5010923;28;20041;-89
2024/02/27 04:03:15;;;;;;;14.30;9.05;;;;;;;;;;5014177;28;20037;-88
2024/02/27 04:05:41;;;;;;;19.20;9.93;;;;;;;;;;4993057;28;20018;-87
2024/02/27 04:08:10;;;;;;;16.75;9.93;;;;;;;;;;5013621;28;20017;-88
2024/02/27 04:10:36;;;;;;;18.92;9.73;;;;;;;;;;5012917;28;20041;-87
2024/02/27 04:13:02;;;;;;;16.80;9.98;;;;;;;;;;4993229;28;20030;-87
2024/02/27 04:15:28;;;;;;;16.90;9.75;;;;;;;;;;5008813;28;20029;-88
2024/02/27 04:17:55;;;;;;;19.15;10.30;;;7.70;99.90;;;;;;4997314;28;20018;-89
2024/02/27 04:20:21;;;;;;;16.95;10.10;;;;;;;;;;5010591;28;20052;-87
2024/02/27 04:22:47;;;;;;;18.08;10.57;;;;;;;;;;5012508;28;20073;-88
2024/02/27 04:25:13;;;;;;;21.17;11.82;;;;;;;;;;5009588;28;20065;-86
2024/02/27 04:27:39;;;;;;;19.42;11.48;;;;;;;;;;5010358;28;20018;-88
2024/02/27 04:30:06;;;;;;;21.35;12.25;;;7.50;99.90;;;;;;5010479;28;20045;-87
2024/02/27 04:32:33;;;;;;;19.23;11.48;;;;;;;;;;4991691;28;20033;-89
2024/02/27 04:34:59;;;;;;;19.98;11.57;;;;;;;;;;5009056;28;20058;-88
2024/02/27 04:37:24;;;;;;;22.48;11.93;;;7.40;99.90;;;;;;5005423;28;20007;-89
2024/02/27 04:39:51;;;;;;;22.80;12.18;;;;;;;;;;5009672;28;20041;-87
2024/02/27 04:42:17;;;;;;;20.77;11.82;;;;;;;;;;5008297;28;20126;-87
2024/02/27 04:44:43;;;;;;;22.83;13.15;;;;;;;;;;5008308;28;20034;-89
2024/02/27 04:47:09;;;;;;;24.95;13.40;;;;;;;;;;5006841;28;20014;-88
2024/02/27 04:49:35;;;;;;;24.10;13.32;;;;;;;;;;5012241;28;20174;-88
2024/02/27 04:52:01;;;;;;;23.00;12.73;;;;;;;;;;5012299;28;20014;-88
2024/02/27 04:54:27;;;;;;;26.92;14.55;;;;;;;;;;4996113;28;20105;-86
2024/02/27 04:56:53;;;;;;;23.83;13.40;;;;;;;;;;5010343;28;20011;-88
2024/02/27 04:59:19;;;;;;;24.75;14.35;;;;;;;;;;5011790;28;20037;-89
2024/02/27 05:01:48;;;;;;;24.73;14.35;;;;;;;;;;5011190;28;20074;-88
2024/02/27 05:04:14;;;;;;;22.73;13.82;;;;;;;;;;5013487;28;20018;-89
2024/02/27 05:06:41;;;;;;;26.20;14.52;;;;;;;;;;5011578;28;20041;-88
2024/02/27 05:09:07;;;;;;;24.23;14.13;;;7.40;99.90;;;;;;5011005;28;20007;-90
2024/02/27 05:11:33;;;;;;;23.25;13.75;;;;;;;;;;4993853;28;20038;-88
2024/02/27 05:13:59;;;;;;;25.58;14.30;;;;;;;;;;4997402;28;20021;-86
2024/02/27 05:16:25;;;;;;;28.60;15.48;;;;;;;;;;5011511;28;20030;-86
2024/02/27 05:18:51;;;;;;;26.55;15.27;;;;;;;;;;5013032;28;20030;-87
2024/02/27 05:21:21;;;;;;;26.35;15.90;;;7.50;99.90;;;;;;5011399;28;20045;-89
2024/02/27 05:23:48;;;;;;;27.23;15.80;;;;;;;;;;4994643;28;20018;-87
2024/02/27 05:26:14;;;;;;;28.27;16.48;;;7.50;99.90;;;;;;4994166;28;20050;-88
2024/02/27 05:28:40;;;;;;;26.13;15.85;;;;;;;;;;4993912;28;20082;-84
2024/02/27 05:31:28;;;;;;;28.35;16.45;;;7.50;99.90;;;;;;5012715;28;20540;-86
2024/02/27 05:33:55;;;;;;;28.42;16.10;;;7.60;99.90;;;;;;4993713;28;20154;-88
2024/02/27 05:36:21;;;;;;;28.90;16.52;;;7.50;99.90;;;;;;4994270;28;20030;-87
2024/02/27 05:38:49;;;;;;;28.05;16.80;;;;;;;;;;5008871;28;20023;-86
2024/02/27 05:41:15;;;;;;;26.25;15.52;;;;;;;;;;5011359;28;20022;-86
2024/02/27 05:43:41;;;;;;;27.58;16.55;;;;;;;;;;5006061;28;20094;-87
2024/02/27 05:46:09;;;;;;;31.65;16.88;;;7.60;99.90;;;;;;5013435;28;20022;-88
2024/02/27 05:48:35;;;;;;;29.42;16.63;;;;;;;;;;5008102;28;20022;-86
2024/02/27 05:51:01;;;;;;;27.00;16.52;;;;;;;;;;5008100;28;20026;-88
2024/02/27 05:53:29;;;;;;;29.42;16.23;;;;;;;;;;4997005;28;20201;-89
2024/02/27 05:55:56;;;;;;;29.08;17.05;;;7.60;99.90;;;;;;5009358;28;20014;-88
2024/02/27 05:58:23;;;;;;;41.28;23.02;;;7.60;99.90;;;;;;4993641;28;20054;-88
2024/02/27 06:00:50;;;;;;;29.77;17.05;;;;;;;;;;4993119;28;20093;-87
2024/02/27 06:03:16;;;;;;;25.95;15.65;;;;;;;;;;5011529;28;20102;-89
2024/02/27 06:05:42;;;;;;;28.63;17.27;;;;;;;;;;5011071;28;20038;-88
2024/02/27 06:08:08;;;;;;;28.00;16.10;;;;;;;;;;5009488;28;20042;-89
2024/02/27 06:10:34;;;;;;;27.75;17.05;;;;;;;;;;4994686;28;20026;-89
2024/02/27 06:13:00;;;;;;;31.77;17.95;;;;;;;;;;5013111;28;20030;-88
2024/02/27 06:15:26;;;;;;;32.78;18.30;;;;;;;;;;5007987;28;20034;-90
2024/02/27 06:17:57;;;;;;;31.95;18.23;;;7.30;99.90;;;;;;5009725;28;20094;-88
2024/02/27 06:23:07;;;;;;;33.55;17.52;;;7.50;99.90;;;;;;5010109;28;20021;-89
2024/02/27 06:25:33;;;;;;;28.75;16.98;;;;;;;;;;4991541;28;20081;-87
2024/02/27 06:27:59;;;;;;;30.83;18.05;;;;;;;;;;5009006;28;20015;-88
2024/02/27 06:30:25;;;;;;;31.65;18.73;;;;;;;;;;5006672;28;20041;-86
2024/02/27 06:32:52;;;;;;;30.55;17.95;;;;;;;;;;4990796;28;20010;-88
2024/02/27 06:35:18;;;;;;;30.08;17.48;;;;;;;;;;5002806;28;20046;-90
2024/02/27 06:37:44;;;;;;;31.17;18.27;;;7.30;99.90;;;;;;5008809;28;20339;-88
2024/02/27 06:40:10;;;;;;;34.20;18.15;;;;;;;;;;5015458;28;20053;-89
2024/02/27 07:40:35;;;;;;;35.00;17.27;;;7.70;99.90;;;;;;5050930;28;20045;-86
2024/02/27 07:47:49;;;;;;;24.45;16.15;;;7.90;99.90;;;;;;4978633;28;20094;-84
2024/02/27 13:08:43;;;;;;;13.00;7.35;;;11.80;99.90;;;;;;5032406;28;20042;-84
2024/02/27 13:15:56;;;;;;;12.10;7.60;;;12.40;99.90;;;;;;5024972;28;20032;-87
